This is the latest recevied weather packets stored in our database for station/object WX5KDM. If no packets are shown the sender has not sent any weather packets the latest 10 day(s).
| Time | Temp. | Humidity | Pressure | Rain* | Wind** | Luminosity | Snow |
|---|---|---|---|---|---|---|---|
| 1777779746 | 13.33° C | 63% | 1020.2 hPa | 0 mm | - | - | - |
| 1777779444 | 13.33° C | 62% | 1020.1 hPa | 0 mm | - | - | - |
| 1777779136 | 13.33° C | 61% | 1019.9 hPa | 0 mm | - | - | - |
| 1777778834 | 13.33° C | 60% | 1020.1 hPa | 0 mm | - | - | - |
| 1777778532 | 13.33° C | 60% | 1019.7 hPa | 0 mm | - | - | - |
| 1777778228 | 13.33° C | 61% | 1019.9 hPa | 0 mm | - | - | - |
| 1777777927 | 13.33° C | 60% | 1019.7 hPa | 0 mm | - | - | - |
| 1777777622 | 12.78° C | 62% | 1019.9 hPa | 0 mm | - | - | - |
| 1777777319 | 12.22° C | 66% | 1019.5 hPa | 0 mm | - | - | - |
| 1777777016 | 12.22° C | 68% | 1019.4 hPa | 0 mm | - | - | - |
| 1777776714 | 11.67° C | 68% | 1019.4 hPa | 0 mm | - | - | - |
| 1777776410 | 11.67° C | 72% | 1019.5 hPa | 0 mm | - | - | - |
| 1777776108 | 11.67° C | 69% | 1019.3 hPa | 0 mm | - | - | - |
| 1777775804 | 11.67° C | 69% | 1019.2 hPa | 0 mm | - | - | - |
| 1777775502 | 11.67° C | 70% | 1019.2 hPa | 0 mm | - | - | - |
| 1777775198 | 11.67° C | 67% | 1019.3 hPa | 0 mm | - | - | - |
| 1777774897 | 12.22° C | 67% | 1019 hPa | 0 mm | - | - | - |
| 1777774595 | 12.22° C | 67% | 1018.8 hPa | 0 mm | - | - | - |
| 1777774291 | 12.78° C | 65% | 1018.8 hPa | 0 mm | - | - | - |
| 1777773988 | 12.78° C | 64% | 1018.9 hPa | 0 mm | - | - | - |
| 1777773686 | 12.78° C | 63% | 1018.8 hPa | 0 mm | - | - | - |
| 1777773383 | 13.33° C | 62% | 1018.6 hPa | 0 mm | - | - | - |
| 1777773080 | 13.33° C | 63% | 1018.6 hPa | 0 mm | - | - | - |
| 1777772775 | 13.89° C | 59% | 1018.6 hPa | 0 mm | - | - | - |
| 1777772473 | 14.44° C | 58% | 1018.7 hPa | 0 mm | - | - | - |
* Rain latest hour (hover to see other rain measurements)
** Current wind speed in m/s (hover to see current wind gust speed)